createdAt,value
2023-03-04T00:00:01.894Z,33.6429
2023-03-04T00:01:01.929Z,34.8571
2023-03-04T00:02:02.042Z,32.1429
2023-03-04T00:03:02.019Z,32
2023-03-04T00:04:02.045Z,31.8571
2023-03-04T00:05:02.070Z,33.1429
2023-03-04T00:06:02.102Z,31.2143
2023-03-04T00:07:02.127Z,30.5
2023-03-04T00:08:02.157Z,31.3571
2023-03-04T00:09:02.211Z,33
2023-03-04T00:10:02.235Z,33.6429
2023-03-04T00:11:02.263Z,30.3571
2023-03-04T00:12:02.297Z,29.5
2023-03-04T00:13:02.342Z,29.1429
2023-03-04T00:14:02.384Z,31.3571
2023-03-04T00:15:02.401Z,29.6429
2023-03-04T00:16:02.465Z,32
2023-03-04T00:17:02.472Z,29
2023-03-04T00:18:02.526Z,31.6429
2023-03-04T00:19:02.549Z,32.8571
2023-03-04T00:20:02.588Z,30.3571
2023-03-04T00:21:02.612Z,31.9286
2023-03-04T00:22:02.650Z,30.3571
2023-03-04T00:23:02.715Z,29.7143
2023-03-04T00:24:02.714Z,30.1429
2023-03-04T00:25:02.746Z,32.3571
2023-03-04T00:26:02.781Z,29.7143
2023-03-04T00:27:02.812Z,30.1429
2023-03-04T00:28:02.865Z,30.5
2023-03-04T00:29:02.885Z,29.3571
2023-03-04T00:30:02.940Z,28.7143
2023-03-04T00:31:02.963Z,28.3571
2023-03-04T00:32:03.168Z,30.1429
2023-03-04T00:33:03.029Z,30.8571
2023-03-04T00:34:03.053Z,31.4286
2023-03-04T00:35:03.124Z,30.5
2023-03-04T00:36:03.134Z,29.6429
2023-03-04T00:37:03.175Z,28.5
2023-03-04T00:38:03.205Z,29.9286
2023-03-04T00:39:03.236Z,28.4286
2023-03-04T00:40:03.264Z,29.4286
2023-03-04T00:41:03.325Z,28.1429
2023-03-04T00:42:03.349Z,29.9286
2023-03-04T00:43:03.418Z,30.2143
2023-03-04T00:44:03.415Z,26.4286
2023-03-04T00:45:03.445Z,29.4286
2023-03-04T00:46:03.553Z,27
2023-03-04T00:47:03.528Z,30.3571
2023-03-04T00:48:03.553Z,28.4286
2023-03-04T00:49:03.599Z,26
2023-03-04T00:50:03.634Z,27.4286
2023-03-04T00:51:03.657Z,26.5
2023-03-04T00:52:03.683Z,26.1429
2023-03-04T00:53:03.723Z,24.1429
2023-03-04T00:54:03.756Z,23.4286
2023-03-04T00:55:03.807Z,26.5
2023-03-04T00:56:03.818Z,28
2023-03-04T00:57:03.850Z,25.1429
2023-03-04T00:58:03.892Z,27.1429
2023-03-04T00:59:03.922Z,25
2023-03-04T01:00:03.966Z,24.5
2023-03-04T01:01:04.100Z,22.9286
2023-03-04T01:02:04.098Z,23.8571
2023-03-04T01:03:04.109Z,23.9286
2023-03-04T01:04:04.111Z,23.3571
2023-03-04T01:05:04.148Z,22.2143
2023-03-04T01:06:04.184Z,22.7143
2023-03-04T01:07:04.221Z,26.9286
2023-03-04T01:08:04.262Z,23.3571
2023-03-04T01:09:04.289Z,22.5
2023-03-04T01:10:04.324Z,23
2023-03-04T01:11:04.350Z,21.9286
2023-03-04T01:12:04.385Z,23.5
2023-03-04T01:13:04.448Z,23.5
2023-03-04T01:14:04.482Z,22.1429
2023-03-04T01:15:04.489Z,20.3571
2023-03-04T01:16:04.515Z,21.4286
2023-03-04T01:17:04.556Z,21.6429
2023-03-04T01:18:04.637Z,19.6429
2023-03-04T01:19:04.624Z,18.9286
2023-03-04T01:20:04.665Z,19
2023-03-04T01:21:04.714Z,21.5
2023-03-04T01:22:04.731Z,22.3571
2023-03-04T01:23:04.743Z,20.8571
2023-03-04T01:24:04.795Z,20.4286
2023-03-04T01:25:04.820Z,19.1429
2023-03-04T01:26:04.856Z,22.8571
2023-03-04T01:27:04.899Z,19.1429
2023-03-04T01:28:04.930Z,21.9286
2023-03-04T01:29:04.992Z,19.3571
2023-03-04T01:30:05.011Z,18.8571
2023-03-04T01:31:05.083Z,19.7143
2023-03-04T01:32:05.119Z,19.4286
2023-03-04T01:33:05.094Z,19.3571
2023-03-04T01:34:05.136Z,20.8571
2023-03-04T01:35:05.157Z,18.3571
2023-03-04T01:36:05.195Z,19.4286
2023-03-04T01:37:05.235Z,19.4286
2023-03-04T01:38:05.350Z,18.6429
2023-03-04T01:39:05.300Z,16.7143
2023-03-04T01:40:05.362Z,17.6429
2023-03-04T01:41:05.372Z,19.4286
2023-03-04T01:42:05.403Z,19.6429
2023-03-04T01:43:05.435Z,20.2143
2023-03-04T01:44:05.476Z,17.3571
2023-03-04T01:45:05.520Z,17.8571
2023-03-04T01:46:05.670Z,20.3571
2023-03-04T01:47:05.566Z,17.9286
2023-03-04T01:48:05.607Z,18.1429
2023-03-04T01:49:05.736Z,16.4286
2023-03-04T01:50:05.676Z,15.5
2023-03-04T01:51:05.712Z,16.1429
2023-03-04T01:52:05.737Z,15.3571
2023-03-04T01:53:05.764Z,17.7143
2023-03-04T01:54:05.804Z,15.6429
2023-03-04T01:55:05.845Z,18.1429
2023-03-04T01:56:05.884Z,14.3571
2023-03-04T01:57:05.922Z,18.9286
2023-03-04T01:58:05.955Z,15.6429
2023-03-04T01:59:05.986Z,16.4286
2023-03-04T02:00:06.018Z,13.3571
2023-03-04T02:01:06.056Z,15.3571
2023-03-04T02:02:06.085Z,16.4286
2023-03-04T02:03:06.136Z,17.4286
2023-03-04T02:04:06.236Z,16.7143
2023-03-04T02:05:06.207Z,16.7143
2023-03-04T02:06:06.243Z,17.2143
2023-03-04T02:07:06.276Z,17.8571
2023-03-04T02:08:06.324Z,17.2143
2023-03-04T02:09:06.341Z,14.4286
2023-03-04T02:10:06.369Z,16
2023-03-04T02:11:06.391Z,16.6429
2023-03-04T02:12:06.427Z,17.7143
2023-03-04T02:13:06.482Z,15.3571
2023-03-04T02:14:06.504Z,15.5
2023-03-04T02:15:06.529Z,17.3571
2023-03-04T02:16:06.633Z,15.4286
2023-03-04T02:17:06.592Z,16.4286
2023-03-04T02:18:06.645Z,15.2143
2023-03-04T02:19:06.671Z,15.3571
2023-03-04T02:20:06.711Z,15
2023-03-04T02:21:06.729Z,12.4286
2023-03-04T02:22:06.787Z,14.2143
2023-03-04T02:23:06.795Z,15.8571
2023-03-04T02:24:06.855Z,14.8571
2023-03-04T02:25:06.871Z,15
2023-03-04T02:26:06.908Z,17.2143
2023-03-04T02:27:06.937Z,15.2143
2023-03-04T02:28:06.974Z,14
2023-03-04T02:29:07.006Z,15
2023-03-04T02:30:07.044Z,15.5
2023-03-04T02:31:07.149Z,12.9286
2023-03-04T02:32:07.124Z,16.2143
2023-03-04T02:33:07.135Z,16.3571
2023-03-04T02:34:07.173Z,14.4286
2023-03-04T02:35:07.208Z,13.7143
2023-03-04T02:36:07.240Z,13.5
2023-03-04T02:37:07.282Z,12.5
2023-03-04T02:38:07.304Z,16.1429
2023-03-04T02:39:07.332Z,15.2143
2023-03-04T02:40:07.363Z,15.3571
2023-03-04T02:41:07.407Z,13.6429
2023-03-04T02:42:07.421Z,13.9286
2023-03-04T02:43:07.460Z,14.2143
2023-03-04T02:44:07.491Z,14.3571
2023-03-04T02:45:07.516Z,13.6429
2023-03-04T02:46:07.594Z,12.6429
2023-03-04T02:47:07.592Z,15.6429
2023-03-04T02:48:07.632Z,15.9286
2023-03-04T02:49:07.659Z,12.1429
2023-03-04T02:50:07.697Z,14
2023-03-04T02:51:07.731Z,13.6429
2023-03-04T02:52:07.754Z,15.9286
2023-03-04T02:53:07.802Z,13.6429
2023-03-04T02:54:07.829Z,14.9286
2023-03-04T02:55:07.886Z,11.9286
2023-03-04T02:56:07.916Z,12.4286
2023-03-04T02:57:07.948Z,15.7143
2023-03-04T02:58:07.972Z,15.6429
2023-03-04T02:59:08.010Z,16.2143
2023-03-04T03:00:08.052Z,14.7143
2023-03-04T03:01:08.115Z,10.7143
2023-03-04T03:02:08.250Z,15.5
2023-03-04T03:03:08.299Z,16.6429
2023-03-04T03:04:08.182Z,15.1429
2023-03-04T03:05:08.226Z,12.4286
2023-03-04T03:06:08.256Z,13.1429
2023-03-04T03:07:08.296Z,11.1429
2023-03-04T03:08:08.331Z,13.1429
2023-03-04T03:09:08.354Z,12.2143
2023-03-04T03:10:08.370Z,12.8571
2023-03-04T03:11:08.978Z,12.6429
2023-03-04T03:12:08.437Z,11
2023-03-04T03:13:08.482Z,11.8571
2023-03-04T03:14:08.510Z,11.5
2023-03-04T03:15:08.564Z,14.3571
2023-03-04T03:16:08.620Z,12.2143
2023-03-04T03:17:08.621Z,11.8571
2023-03-04T03:18:08.667Z,12.5
2023-03-04T03:19:08.681Z,12.1429
2023-03-04T03:20:08.736Z,11.5
2023-03-04T03:21:08.749Z,12.8571
2023-03-04T03:22:08.795Z,12.9286
2023-03-04T03:23:08.816Z,12.9286
2023-03-04T03:24:08.866Z,12.5
2023-03-04T03:25:08.893Z,15.2143
2023-03-04T03:26:08.925Z,12.8571
2023-03-04T03:27:08.961Z,11.4286
2023-03-04T03:28:08.992Z,12.1429
2023-03-04T03:29:09.031Z,11.1429
2023-03-04T03:30:09.067Z,10.9286
2023-03-04T03:31:09.189Z,13.4286
2023-03-04T03:32:09.251Z,13.4286
2023-03-04T03:33:09.181Z,12.2143
2023-03-04T03:34:09.214Z,11.6429
2023-03-04T03:35:09.241Z,11
2023-03-04T03:36:09.348Z,10.3571
2023-03-04T03:37:09.324Z,10.5
2023-03-04T03:38:09.345Z,12.5
2023-03-04T03:39:09.389Z,11.5
2023-03-04T03:40:09.413Z,10.6429
2023-03-04T03:41:09.453Z,10.5
2023-03-04T03:42:09.500Z,13.6429
2023-03-04T03:43:09.542Z,10
2023-03-04T03:44:09.583Z,9.35714
2023-03-04T03:45:09.581Z,12.6429
2023-03-04T03:46:09.713Z,10.3571
2023-03-04T03:47:09.658Z,11.6429
2023-03-04T03:48:09.691Z,9.64286
2023-03-04T03:49:09.726Z,12
2023-03-04T03:50:09.787Z,13.2143
2023-03-04T03:51:09.788Z,12.3571
2023-03-04T03:52:09.852Z,11.1429
2023-03-04T03:53:09.871Z,12.3571
2023-03-04T03:54:09.929Z,10.6429
2023-03-04T03:55:09.959Z,9.71429
2023-03-04T03:56:10.004Z,11.5
2023-03-04T03:57:10.028Z,14.3571
2023-03-04T03:58:10.052Z,10.4286
2023-03-04T03:59:10.082Z,12.9286
2023-03-04T04:00:10.121Z,10.8571
2023-03-04T04:01:10.157Z,12.7143
2023-03-04T04:02:10.379Z,8.85714
2023-03-04T04:03:10.246Z,13.6429
2023-03-04T04:04:10.271Z,10.8571
2023-03-04T04:05:10.317Z,11
2023-03-04T04:06:10.344Z,11.5
2023-03-04T04:07:10.383Z,10.2143
2023-03-04T04:08:10.415Z,11.8571
2023-03-04T04:09:10.438Z,13.4286
2023-03-04T04:10:10.482Z,10.7143
2023-03-04T04:11:10.507Z,11.5
2023-03-04T04:12:10.562Z,10
2023-03-04T04:13:10.585Z,10.3571
2023-03-04T04:14:10.632Z,11.2143
2023-03-04T04:15:10.659Z,13.8571
2023-03-04T04:16:10.736Z,10.3571
2023-03-04T04:17:10.726Z,10.6429
2023-03-04T04:18:10.749Z,11.7143
2023-03-04T04:19:10.782Z,9.71429
2023-03-04T04:20:10.814Z,11.5
2023-03-04T04:21:10.852Z,10.3571
2023-03-04T04:22:10.913Z,9.35714
2023-03-04T04:23:10.918Z,11.3571
2023-03-04T04:24:10.955Z,9.35714
2023-03-04T04:25:10.992Z,10.1429
2023-03-04T04:26:11.023Z,12
2023-03-04T04:27:11.062Z,11
2023-03-04T04:28:11.107Z,11.8571
2023-03-04T04:29:11.120Z,12.3571
2023-03-04T04:30:11.160Z,9
2023-03-04T04:31:11.210Z,10.1429
2023-03-04T04:32:11.214Z,12.2143
2023-03-04T04:33:11.255Z,11.1429
2023-03-04T04:34:11.286Z,12.3571
2023-03-04T04:35:11.328Z,11
2023-03-04T04:36:11.366Z,11.1429
2023-03-04T04:37:11.390Z,12.5
2023-03-04T04:38:11.443Z,10.2143
2023-03-04T04:39:11.466Z,8.92857
2023-03-04T04:40:11.512Z,14.7143
2023-03-04T04:41:11.531Z,10.7143
2023-03-04T04:42:11.568Z,9.71429
2023-03-04T04:43:11.610Z,9.71429
2023-03-04T04:44:11.642Z,11.9286
2023-03-04T04:45:11.670Z,10.3571
2023-03-04T04:46:11.709Z,7.21429
2023-03-04T04:47:11.734Z,9.5
2023-03-04T04:48:11.788Z,7.14286
2023-03-04T04:49:11.835Z,7.71429
2023-03-04T04:50:11.849Z,10.4286
2023-03-04T04:51:11.881Z,9.21429
2023-03-04T04:52:11.927Z,11.1429
2023-03-04T04:53:11.971Z,9.35714
2023-03-04T04:54:12.008Z,8.92857
2023-03-04T04:55:12.015Z,10.3571
2023-03-04T04:56:12.049Z,8.85714
2023-03-04T04:57:12.085Z,11.1429
2023-03-04T04:58:12.120Z,8.14286
2023-03-04T04:59:12.172Z,7.42857
2023-03-04T05:00:12.199Z,10.5
2023-03-04T05:01:12.266Z,10.5
2023-03-04T05:02:12.257Z,7.85714
2023-03-04T05:03:12.315Z,9.85714
2023-03-04T05:04:12.326Z,8.85714
2023-03-04T05:05:12.352Z,10.3571
2023-03-04T05:06:12.385Z,7
2023-03-04T05:07:12.412Z,8.85714
2023-03-04T05:08:12.448Z,8.64286
2023-03-04T05:09:12.494Z,10.4286
2023-03-04T05:10:12.525Z,8.21429
2023-03-04T05:11:12.576Z,9.21429
2023-03-04T05:12:12.610Z,7
2023-03-04T05:13:12.638Z,7.71429
2023-03-04T05:14:12.683Z,10.1429
2023-03-04T05:15:12.692Z,9.85714
2023-03-04T05:16:12.819Z,5.5
2023-03-04T05:17:12.773Z,8.64286
2023-03-04T05:18:12.795Z,9.35714
2023-03-04T05:19:12.835Z,8.14286
2023-03-04T05:20:12.868Z,9.5
2023-03-04T05:21:12.918Z,8.71429
2023-03-04T05:22:13.141Z,7.71429
2023-03-04T05:23:12.971Z,9.21429
2023-03-04T05:24:13.014Z,7.92857
2023-03-04T05:25:13.051Z,9
2023-03-04T05:26:13.079Z,9.35714
2023-03-04T05:27:13.113Z,7.85714
2023-03-04T05:28:13.145Z,7.5
2023-03-04T05:29:13.178Z,8.92857
2023-03-04T05:30:13.216Z,6.42857
2023-03-04T05:31:13.323Z,7.92857
2023-03-04T05:32:13.315Z,8.14286
2023-03-04T05:33:13.324Z,9.14286
2023-03-04T05:34:13.354Z,8
2023-03-04T05:35:13.394Z,9.35714
2023-03-04T05:36:13.424Z,7.42857
2023-03-04T05:37:13.461Z,8.21429
2023-03-04T05:38:13.493Z,9.14286
2023-03-04T05:39:13.526Z,8.21429
2023-03-04T05:40:13.560Z,11.8571
2023-03-04T05:41:13.586Z,8
2023-03-04T05:42:13.630Z,6.85714
2023-03-04T05:43:13.670Z,6.5
2023-03-04T05:44:13.689Z,7.35714
2023-03-04T05:45:13.726Z,8.14286
2023-03-04T05:46:13.792Z,9.35714
2023-03-04T05:47:13.801Z,8.71429
2023-03-04T05:48:13.847Z,8.14286
2023-03-04T05:49:13.863Z,7.5
2023-03-04T05:50:13.908Z,7.5
2023-03-04T05:51:13.941Z,6.21429
2023-03-04T05:52:13.982Z,6.5
2023-03-04T05:53:14.032Z,5.92857
2023-03-04T05:54:14.115Z,7.92857
2023-03-04T05:55:14.099Z,6.5
2023-03-04T05:56:14.125Z,9.35714
2023-03-04T05:57:14.174Z,7.35714
2023-03-04T05:58:14.210Z,7.85714
2023-03-04T05:59:14.246Z,9.85714
2023-03-04T06:00:14.286Z,8
2023-03-04T06:01:14.305Z,7
2023-03-04T06:02:14.355Z,8.92857
2023-03-04T06:03:14.383Z,7.85714
2023-03-04T06:04:14.556Z,8.64286
2023-03-04T06:05:14.467Z,8
2023-03-04T06:06:14.479Z,7.42857
2023-03-04T06:07:14.501Z,8.42857
2023-03-04T06:08:14.534Z,7.64286
2023-03-04T06:09:14.564Z,8.92857
2023-03-04T06:10:14.610Z,5.14286
2023-03-04T06:11:14.626Z,6.42857
2023-03-04T06:12:14.655Z,7.5
2023-03-04T06:13:14.703Z,6.64286
2023-03-04T06:14:14.782Z,6.21429
2023-03-04T06:15:14.783Z,6.42857
2023-03-04T06:16:14.884Z,7
2023-03-04T06:17:14.837Z,9.35714
2023-03-04T06:18:14.869Z,6.64286
2023-03-04T06:19:14.911Z,6.5
2023-03-04T06:20:14.933Z,9
2023-03-04T06:21:14.969Z,7
2023-03-04T06:22:15.011Z,6.71429
2023-03-04T06:23:15.051Z,6.35714
2023-03-04T06:24:15.076Z,7.64286
2023-03-04T06:25:15.108Z,6.42857
2023-03-04T06:26:15.133Z,8.14286
2023-03-04T06:27:15.173Z,8.14286
2023-03-04T06:28:15.205Z,7.85714
2023-03-04T06:29:15.268Z,5.85714
2023-03-04T06:30:15.281Z,7.42857
2023-03-04T06:31:15.365Z,9
2023-03-04T06:32:15.436Z,7.14286
2023-03-04T06:33:15.383Z,7.85714
2023-03-04T06:34:15.418Z,7.64286
2023-03-04T06:35:15.455Z,6.85714
2023-03-04T06:36:15.488Z,7.42857
2023-03-04T06:37:15.518Z,6.35714
2023-03-04T06:38:15.569Z,6
2023-03-04T06:39:15.592Z,7
2023-03-04T06:40:15.625Z,7.21429
2023-03-04T06:41:15.658Z,5.42857
2023-03-04T06:42:15.688Z,6.64286
2023-03-04T06:43:15.731Z,8.42857
2023-03-04T06:44:15.762Z,8.35714
2023-03-04T06:45:15.792Z,7
2023-03-04T06:46:15.873Z,7.35714
2023-03-04T06:47:15.866Z,7.71429
2023-03-04T06:48:15.893Z,7.14286
2023-03-04T06:49:15.918Z,5.85714
2023-03-04T06:50:15.965Z,6
2023-03-04T06:51:16.002Z,5.92857
2023-03-04T06:52:16.041Z,6
2023-03-04T06:53:16.066Z,6.71429
2023-03-04T06:54:16.107Z,5.71429
2023-03-04T06:55:16.148Z,7.5
2023-03-04T06:56:16.210Z,8.42857
2023-03-04T06:57:16.213Z,7.85714
2023-03-04T06:58:16.231Z,7.64286
2023-03-04T06:59:16.272Z,5.64286
2023-03-04T07:00:16.299Z,8
2023-03-04T07:01:16.423Z,5.85714
2023-03-04T07:02:16.373Z,6.42857
2023-03-04T07:03:16.389Z,7.5
2023-03-04T07:04:16.467Z,4.5
2023-03-04T07:05:16.465Z,6.5
2023-03-04T07:06:16.487Z,7.64286
2023-03-04T07:07:16.541Z,6.85714
2023-03-04T07:08:16.565Z,7.35714
2023-03-04T07:09:16.588Z,6.21429
2023-03-04T07:10:16.645Z,6.5
2023-03-04T07:11:16.652Z,5.21429
2023-03-04T07:12:16.724Z,6.85714
2023-03-04T07:13:16.722Z,5.42857
2023-03-04T07:14:16.760Z,6
2023-03-04T07:15:16.798Z,5.85714
2023-03-04T07:16:16.905Z,5.71429
2023-03-04T07:17:16.884Z,6.21429
2023-03-04T07:18:16.906Z,7.92857
2023-03-04T07:19:16.935Z,5.71429
2023-03-04T07:20:16.978Z,7.35714
2023-03-04T07:21:17.028Z,6.92857
2023-03-04T07:22:17.056Z,6.42857
2023-03-04T07:23:17.088Z,6.42857
2023-03-04T07:24:17.115Z,6.64286
2023-03-04T07:25:17.151Z,7.14286
2023-03-04T07:26:17.183Z,5.64286
2023-03-04T07:27:17.233Z,6.42857
2023-03-04T07:28:17.247Z,5.14286
2023-03-04T07:29:17.302Z,5.14286
2023-03-04T07:30:17.326Z,5.5
2023-03-04T07:31:17.441Z,4.42857
2023-03-04T07:32:17.470Z,6.35714
2023-03-04T07:33:17.415Z,4.14286
2023-03-04T07:34:17.468Z,4.35714
2023-03-04T07:35:17.596Z,4.42857
2023-03-04T07:36:17.506Z,4.35714
2023-03-04T07:37:17.551Z,4.14286
2023-03-04T07:38:17.586Z,5.71429
2023-03-04T07:39:17.625Z,5.64286
2023-03-04T07:40:17.665Z,5.85714
2023-03-04T07:41:17.705Z,5.14286
2023-03-04T07:42:17.749Z,7.71429
2023-03-04T07:43:17.762Z,8.35714
2023-03-04T07:44:17.797Z,4.64286
2023-03-04T07:45:17.842Z,5.71429
2023-03-04T07:46:18.018Z,7.21429
2023-03-04T07:47:17.909Z,6.35714
2023-03-04T07:48:17.961Z,4.64286
2023-03-04T07:49:17.995Z,4.71429
2023-03-04T07:50:18.207Z,8.35714
2023-03-04T07:51:18.042Z,5.71429
2023-03-04T07:52:18.072Z,6.64286
2023-03-04T07:53:18.112Z,4.5
2023-03-04T07:54:18.152Z,5.5
2023-03-04T07:55:18.206Z,5.35714
2023-03-04T07:56:18.213Z,5.5
2023-03-04T07:57:18.253Z,5.71429
2023-03-04T07:58:18.287Z,6.14286
2023-03-04T07:59:18.326Z,6.21429
2023-03-04T08:00:18.371Z,7.14286
2023-03-04T08:01:18.383Z,6.14286
2023-03-04T08:02:18.445Z,4.92857
2023-03-04T08:03:18.452Z,5.92857
2023-03-04T08:04:18.520Z,5.21429
2023-03-04T08:05:18.536Z,6.64286
2023-03-04T08:06:18.559Z,5.92857
2023-03-04T08:07:18.589Z,5.42857
2023-03-04T08:08:18.619Z,4.21429
2023-03-04T08:09:18.661Z,6
2023-03-04T08:10:18.689Z,6.85714
2023-03-04T08:11:18.737Z,5.92857
2023-03-04T08:12:18.754Z,4.92857
2023-03-04T08:13:18.784Z,6.14286
2023-03-04T08:14:18.843Z,5.64286
2023-03-04T08:15:18.862Z,7.85714
2023-03-04T08:16:18.996Z,5
2023-03-04T08:17:18.929Z,5.85714
2023-03-04T08:18:18.986Z,3.71429
2023-03-04T08:19:19.005Z,5.5
2023-03-04T08:20:19.030Z,4.64286
2023-03-04T08:21:19.063Z,5
2023-03-04T08:22:19.094Z,5.21429
2023-03-04T08:23:19.139Z,4.85714
2023-03-04T08:24:19.175Z,4.92857
2023-03-04T08:25:19.184Z,4.5
2023-03-04T08:26:19.234Z,5
2023-03-04T08:27:19.245Z,4.21429
2023-03-04T08:28:19.283Z,6.5
2023-03-04T08:29:19.314Z,5
2023-03-04T08:30:19.344Z,4
2023-03-04T08:31:19.584Z,4.64286
2023-03-04T08:32:19.607Z,3.64286
2023-03-04T08:33:19.458Z,6.5
2023-03-04T08:34:19.511Z,4.71429
2023-03-04T08:35:19.549Z,6
2023-03-04T08:36:19.557Z,4.21429
2023-03-04T08:37:19.602Z,4.92857
2023-03-04T08:38:19.634Z,4.92857
2023-03-04T08:39:19.679Z,5.21429
2023-03-04T08:40:19.703Z,5
2023-03-04T08:41:19.738Z,5.21429
2023-03-04T08:42:19.777Z,4.14286
2023-03-04T08:43:19.815Z,5
2023-03-04T08:44:19.845Z,5.71429
2023-03-04T08:45:19.890Z,4.21429
2023-03-04T08:46:19.974Z,4.85714
2023-03-04T08:47:19.954Z,5.42857
2023-03-04T08:48:19.991Z,6.42857
2023-03-04T08:49:20.038Z,5.42857
2023-03-04T08:50:22.313Z,6.35714
2023-03-04T08:51:20.096Z,5.35714
2023-03-04T08:52:20.145Z,5.14286
2023-03-04T08:53:20.184Z,5.14286
2023-03-04T08:54:20.199Z,6
2023-03-04T08:55:20.246Z,4.71429
2023-03-04T08:56:20.270Z,5.71429
2023-03-04T08:57:20.317Z,4.71429
2023-03-04T08:58:20.361Z,5
2023-03-04T08:59:20.380Z,4.35714
2023-03-04T09:00:20.403Z,4
2023-03-04T09:01:20.504Z,5.21429
2023-03-04T09:02:20.515Z,4.42857
2023-03-04T09:03:20.648Z,4.5
2023-03-04T09:04:20.560Z,4.5
2023-03-04T09:05:20.601Z,4.92857
2023-03-04T09:06:20.627Z,4.14286
2023-03-04T09:07:20.681Z,4.71429
2023-03-04T09:08:20.703Z,3.85714
2023-03-04T09:09:20.718Z,4.42857
2023-03-04T09:10:20.750Z,4.42857
2023-03-04T09:11:20.790Z,5
2023-03-04T09:12:20.821Z,3.14286
2023-03-04T09:13:20.883Z,4.92857
2023-03-04T09:14:20.880Z,5
2023-03-04T09:15:20.919Z,5.14286
2023-03-04T09:16:21.042Z,4.42857
2023-03-04T09:17:20.976Z,5.14286
2023-03-04T09:18:21.035Z,4.85714
2023-03-04T09:19:21.048Z,4.14286
2023-03-04T09:20:21.122Z,5
2023-03-04T09:21:21.125Z,4.14286
2023-03-04T09:22:21.146Z,4.64286
2023-03-04T09:23:21.174Z,4.35714
2023-03-04T09:24:21.202Z,5.85714
2023-03-04T09:25:21.235Z,5.35714
2023-03-04T09:26:21.264Z,5.42857
2023-03-04T09:27:21.287Z,5.85714
2023-03-04T09:28:21.324Z,4.5
2023-03-04T09:29:21.388Z,5.5
2023-03-04T09:30:21.403Z,3.64286
2023-03-04T09:31:21.446Z,4.5
2023-03-04T09:32:21.510Z,6.14286
2023-03-04T09:33:21.506Z,4.21429
2023-03-04T09:34:21.538Z,4.42857
2023-03-04T09:35:21.617Z,4.85714
2023-03-04T09:36:21.645Z,5.85714
2023-03-04T09:37:21.629Z,5.42857
2023-03-04T09:38:21.658Z,6.35714
2023-03-04T09:39:21.697Z,4.14286
2023-03-04T09:40:21.724Z,5.64286
2023-03-04T09:41:21.773Z,5.64286
2023-03-04T09:42:21.786Z,4.92857
2023-03-04T09:43:21.844Z,3.42857
2023-03-04T09:44:21.853Z,6.85714
2023-03-04T09:45:21.897Z,4.42857
2023-03-04T09:46:21.947Z,5.71429
2023-03-04T09:47:21.953Z,5.92857
2023-03-04T09:48:22.004Z,5.85714
2023-03-04T09:49:22.033Z,6
2023-03-04T09:50:22.064Z,8.42857
2023-03-04T09:51:22.092Z,6.85714
2023-03-04T09:52:22.146Z,5.64286
2023-03-04T09:53:22.161Z,4.5
2023-03-04T09:54:22.204Z,6.71429
2023-03-04T09:55:22.230Z,4.92857
2023-03-04T09:56:22.273Z,6.35714
2023-03-04T09:57:22.302Z,4.5
2023-03-04T09:58:22.347Z,6.42857
2023-03-04T09:59:22.387Z,6.42857
2023-03-04T10:00:22.500Z,5.5
2023-03-04T10:01:22.443Z,8.42857
2023-03-04T10:02:22.472Z,5.35714
2023-03-04T10:03:22.575Z,4.85714
2023-03-04T10:04:22.574Z,7.14286
2023-03-04T10:05:22.580Z,7.92857
2023-03-04T10:06:22.610Z,7.21429
2023-03-04T10:07:22.648Z,8
2023-03-04T10:08:22.670Z,6
2023-03-04T10:09:22.705Z,8.21429
2023-03-04T10:10:22.897Z,9
2023-03-04T10:11:22.771Z,8.85714
2023-03-04T10:12:22.809Z,8.21429
2023-03-04T10:13:22.845Z,7.14286
2023-03-04T10:14:22.898Z,9
2023-03-04T10:15:22.908Z,6.35714
2023-03-04T10:16:23.024Z,6.71429
2023-03-04T10:17:22.964Z,9.35714
2023-03-04T10:18:23.005Z,6
2023-03-04T10:19:23.026Z,7.85714
2023-03-04T10:20:23.064Z,8.64286
2023-03-04T10:21:23.113Z,7.64286
2023-03-04T10:22:23.139Z,6.92857
2023-03-04T10:23:23.161Z,12.2143
2023-03-04T10:24:23.194Z,6.42857
2023-03-04T10:25:23.222Z,5.64286
2023-03-04T10:26:23.266Z,5.5
2023-03-04T10:27:23.303Z,7.21429
2023-03-04T10:28:23.330Z,5.42857
2023-03-04T10:29:23.362Z,8.14286
2023-03-04T10:30:23.400Z,7
2023-03-04T10:31:23.488Z,7.42857
2023-03-04T10:32:23.528Z,5.5
2023-03-04T10:33:23.486Z,7.42857
2023-03-04T10:34:23.527Z,7.92857
2023-03-04T10:35:23.620Z,6.35714
2023-03-04T10:36:23.597Z,8.5
2023-03-04T10:37:23.619Z,8.5
2023-03-04T10:38:23.676Z,7.64286
2023-03-04T10:39:23.691Z,8.14286
2023-03-04T10:40:23.758Z,6.71429
2023-03-04T10:41:23.767Z,9.14286
2023-03-04T10:42:24.043Z,6.92857
2023-03-04T10:43:23.844Z,7.5
2023-03-04T10:44:23.871Z,6.92857
2023-03-04T10:45:24.041Z,11.4286
2023-03-04T10:46:25.406Z,6.85714
2023-03-04T10:47:23.971Z,6.64286
2023-03-04T10:48:24.021Z,8.21429
2023-03-04T10:49:24.045Z,8.21429
2023-03-04T10:50:24.072Z,9
2023-03-04T10:51:24.116Z,10.8571
2023-03-04T10:52:24.139Z,7.71429
2023-03-04T10:53:24.177Z,6.21429
2023-03-04T10:54:24.205Z,7.42857
2023-03-04T10:55:24.244Z,6.5
2023-03-04T10:56:24.275Z,8.64286
2023-03-04T10:57:24.314Z,6.71429
2023-03-04T10:58:24.347Z,7.5
2023-03-04T10:59:24.372Z,8.92857
2023-03-04T11:00:24.438Z,5.5
2023-03-04T11:01:24.454Z,7.14286
2023-03-04T11:02:24.480Z,10.2143
2023-03-04T11:03:25.291Z,8.71429
2023-03-04T11:04:24.548Z,6.85714
2023-03-04T11:05:24.590Z,6.85714
2023-03-04T11:06:24.615Z,8.21429
2023-03-04T11:07:24.649Z,6.42857
2023-03-04T11:08:24.688Z,7.64286
2023-03-04T11:09:24.726Z,7.35714
2023-03-04T11:10:24.764Z,7.85714
2023-03-04T11:11:24.799Z,8
2023-03-04T11:12:24.830Z,8.42857
2023-03-04T11:13:24.869Z,7.71429
2023-03-04T11:14:24.900Z,7.14286
2023-03-04T11:15:24.935Z,6.5
2023-03-04T11:16:25.094Z,8.42857
2023-03-04T11:17:25.013Z,9.85714
2023-03-04T11:18:25.040Z,10.2143
2023-03-04T11:19:25.070Z,8.85714
2023-03-04T11:20:25.107Z,9.21429
2023-03-04T11:21:25.150Z,7.64286
2023-03-04T11:22:25.171Z,7.92857
2023-03-04T11:23:25.213Z,6.35714
2023-03-04T11:24:28.748Z,9.35714
2023-03-04T11:25:25.262Z,7.14286
2023-03-04T11:26:25.300Z,7.14286
2023-03-04T11:27:25.345Z,9.92857
2023-03-04T11:28:25.383Z,8.21429
2023-03-04T11:29:25.405Z,5.64286
2023-03-04T11:30:25.439Z,8.85714
2023-03-04T11:31:25.521Z,8.64286
2023-03-04T11:32:25.543Z,9.21429
2023-03-04T11:33:25.537Z,9.35714
2023-03-04T11:34:25.573Z,8.35714
2023-03-04T11:35:25.627Z,8
2023-03-04T11:36:25.650Z,7.35714
2023-03-04T11:37:25.684Z,9
2023-03-04T11:38:25.710Z,7.14286
2023-03-04T11:39:25.747Z,9.42857
2023-03-04T11:40:25.777Z,10
2023-03-04T11:41:25.811Z,9.35714
2023-03-04T11:42:25.840Z,7.35714
2023-03-04T11:43:25.876Z,7.92857
2023-03-04T11:44:25.916Z,9
2023-03-04T11:45:30.068Z,7.42857
2023-03-04T11:46:26.099Z,9
2023-03-04T11:47:26.015Z,7.92857
2023-03-04T11:48:26.054Z,10.6429
2023-03-04T11:49:26.081Z,8.5
2023-03-04T11:50:26.112Z,9.42857
2023-03-04T11:51:26.157Z,9.14286
2023-03-04T11:52:26.180Z,7.71429
2023-03-04T11:53:26.217Z,9.42857
2023-03-04T11:54:26.242Z,8.21429
2023-03-04T11:55:26.299Z,8.85714
2023-03-04T11:56:26.334Z,8.71429
2023-03-04T11:57:26.353Z,8.35714
2023-03-04T11:58:26.395Z,8.5
2023-03-04T11:59:26.423Z,9.85714
2023-03-04T12:00:26.488Z,7.85714
2023-03-04T12:01:26.495Z,8.5
2023-03-04T12:02:26.525Z,7.64286
2023-03-04T12:03:26.591Z,7.85714
2023-03-04T12:04:26.759Z,9.21429
2023-03-04T12:05:26.665Z,4.42857
2023-03-04T12:06:26.697Z,8.21429
2023-03-04T12:07:26.710Z,8.64286
2023-03-04T12:08:26.753Z,7.92857
2023-03-04T12:09:26.773Z,7.92857
2023-03-04T12:10:26.812Z,8.92857
2023-03-04T12:11:26.887Z,7.42857
2023-03-04T12:12:26.875Z,7.35714
2023-03-04T12:13:26.916Z,9.35714
2023-03-04T12:14:26.947Z,9
2023-03-04T12:15:26.976Z,9.5
2023-03-04T12:16:27.020Z,7.42857
2023-03-04T12:17:27.058Z,7.5
2023-03-04T12:18:27.095Z,7.35714
2023-03-04T12:19:27.125Z,7.35714
2023-03-04T12:20:27.154Z,8.42857
2023-03-04T12:21:27.203Z,6.85714
2023-03-04T12:22:27.243Z,8.5
2023-03-04T12:23:27.257Z,8.21429
2023-03-04T12:24:27.290Z,6.64286
2023-03-04T12:25:27.329Z,8.42857
2023-03-04T12:26:27.361Z,7.85714
2023-03-04T12:27:27.410Z,6.71429